AirNav   Air Wisconsin pilot careers
 
 1530 users online  

Y93 Atlanta Municipal Airport
Atlanta, Michigan, USA


FAA INFORMATION EFFECTIVE 04 JANUARY 2018

Location

FAA Identifier: Y93
Lat/Long: 44-59-48.8216N / 084-07-38.0437W
44-59.813693N / 084-07.634062W
44.9968949 / -84.1272344
(estimated)
Elevation: 875 ft. / 267 m (estimated)
Variation: 06W (1985)
From city: 1 mile SE of ATLANTA, MI
Time zone: UTC -5 (UTC -4 during Daylight Saving Time)
Zip code: 49709

Airport Operations

Airport use: Open to the public
Activation date: 04/1940
Control tower: no
ARTCC: MINNEAPOLIS CENTER
FSS: LANSING FLIGHT SERVICE STATION
NOTAMs facility: LAN (NOTAM-D service available)
Attendance: ON REQ
Pattern altitude: 1875 ft. MSL
Wind indicator: lighted
Segmented circle: yes
Lights: ACTVT LIRL RY 13/31 & LIRL RY 05/23, PAPI RY 23 - CTAF.

Airport Communications

CTAF: 122.9

Nearby radio navigation aids

VOR radial/distance  VOR name  Freq  Var
GLRr098/24.5GAYLORD VOR/DME109.2006W
APNr265/24.7ALPENA VORTAC108.8007W
CGGr060/(31.8)GRAYLING VOR109.8006W

 
NDB name  Hdg/Dist  Freq  Var  ID
GRAYLING070/33.335906WGYG --. -.-- --.

Airport Services

Fuel available: 100LL
FUEL BY PRIOR ARRANGEMENT CALL 989-306-6408 OR 989-306-0926.
Parking: tiedowns

Runway Information

Runway 5/23

Dimensions: 3000 x 60 ft. / 914 x 18 m
Surface: asphalt, in good condition
Runway edge lights: low intensity
RUNWAY 5  RUNWAY 23
Latitude: 44-59.624167N44-59.963167N
Longitude: 084-07.884000W084-07.378167W
Elevation: 880.0 ft.872.0 ft.
Gradient: 0.3% UP
Traffic pattern: leftleft
Runway heading: 052 magnetic, 046 true232 magnetic, 226 true
Displaced threshold: 1494 ft.370 ft.
Markings: basic, in good conditionbasic, in good condition
Visual slope indicator: 2-light PAPI on left (4.00 degrees glide path)
Obstructions: 80 ft. trees, 392 ft. from runway, 135 ft. left of centerline, 3:1 slope to clear
APCH RATIO 25:1 AT DSPLCD THLD.
46 ft. trees, 904 ft. from runway, 125 ft. right of centerline, 15:1 slope to clear
APCH RATIO 25:1 AT DSPLCD THLD BASED ON STRAIGHT OUT.

Runway 13/31

Dimensions: 3223 x 100 ft. / 982 x 30 m
Surface: turf, in fair condition
Runway edge lights: low intensity
LIRL OPERATES JUN THRU SEP.
Runway edge markings: 13/31 MKD WITH 3 FT YELLOW CONES.
RUNWAY 13  RUNWAY 31
Latitude: 44-59.992000N44-59.672667N
Longitude: 084-07.935333W084-07.338333W
Elevation: 876.0 ft.872.8 ft.
Traffic pattern: leftleft
Runway heading: 133 magnetic, 127 true313 magnetic, 307 true
Displaced threshold: 758 ft.569 ft.
Obstructions: 58 ft. trees, 50 ft. from runway, 120 ft. left of centerline
APCH RATIO 20:1 AT DSPLCD THLD.
62 ft. trees, 200 ft. from runway, 125 ft. right of centerline, 3:1 slope to clear
APCH RATIO 19:1 AT DSPLCD THLD OVR 50 FT TREES, 911 FT FM DSPLCD THLD, 0 B; 12:1 OVR 73 FT TREES, 939 FT DSTC, 70 FT L.

Airport Ownership and Management from official FAA records

Ownership: Publicly-owned
Owner: BRILEY & AVERY TWPS
P.O. BOX 322
ATLANTA, MI 49709
Phone 989-785-4050
BRILEY TWP OFC.
Manager: DALE LA CLAIR
11746 COUNTY RD 487, 7570 M-32
ATLANTA, MI 49709
Phone (989) 306-6408
TOM WEBER, ASST. MGR 989-306-0926

Airport Operational Statistics

Aircraft based on the field: 10
Single engine airplanes: 10
    
Aircraft operations: avg 27/week *
50% transient general aviation
50% local general aviation
* for 12-month period ending 31 December 2016

Additional Remarks

FOR WINTER COND/SNOW REMOVAL RY 05/23 CONFIRM PRIOR TO USE; CALL 989-306-6408 OR 989-306-0926; NO SNOW REMOVAL RY 13/31.
RY 13/31 CLSD NOV-APR & WHEN SNOW COVERED.

Instrument Procedures

There are no published instrument procedures at Y93.

Some nearby airports with instrument procedures:

KGLR - Gaylord Regional Airport (24 nm W)
KAPN - Alpena County Regional Airport (25 nm E)
KPZQ - Presque Isle County Airport (28 nm NE)
KGOV - Grayling Army Airfield (32 nm SW)
KBFA - Boyne Mountain Airport (35 nm W)
 
Loc | Ops | Rwys | IFR | FBO | Links
Com | Nav | Svcs | Stats | Notes


 
Area around Y93 (Atlanta Municipal Airport)
 
Road maps at: MapQuest Bing Google
 
Aerial photo
WARNING: Photo may not be current or correct
Aerial photo of Y93 (Atlanta Municipal Airport)
Do you have a better or more recent aerial photo of Atlanta Municipal Airport that you would like to share? If so, please send us your photo.

 
Sectional chart

 
Airport distance calculator
Flying to Atlanta Municipal Airport? Find the distance to fly.

From to Y93

Sunrise and sunset
Times for 23-Jan-2018
 Local
(UTC-5)
 Zulu
(UTC)
Morning civil twilight07:3412:34
Sunrise08:0713:07
Sunset17:3022:30
Evening civil twilight18:0223:02

Current date and time
Zulu (UTC)  23-Jan-2018 20:29:42
Local (UTC-5)  23-Jan-2018 15:29:42
 
METAR
KGLR 
24nm W 
231053Z AUTO 05008KT 030V100 -SN M03/M03 A2944 RMK AO2 SNB48 SLP983 P0000 T10331033 $
KAPN 
24nm E 
231054Z AUTO 36012KT 3SM BR OVC003 M01/M01 A2947 RMK AO2 SLP985 I1001 T10111011
KPZQ 
28nm NE 
231055Z AUTO 03003KT 4SM BR OVC003 M03/M04 A2951 RMK AO2 T10321036
KGOV 
32nm SW 
231055Z AUTO 05007KT 7SM RA OVC004 00/M01 A2942 RMK AO2 T00001006
KMGN 
42nm NW 
231055Z AUTO 04005KT 10SM OVC007 M05/M05 A2952 RMK AO2 T10471054
KSLH 
42nm NW 
231055Z AUTO 03007KT 5SM BR OVC007 M05/M06 A2954 RMK AO2 T10571065
KPLN 
44nm NW 
231054Z AUTO 01012KT 4SM -SN BR BKN006 OVC012 M06/M06 A2954 RMK AO2 FZRAB09E24SNB24 CIG 005V010 SLP014 P0004 I1000 T10561061
KHTL 
45nm SW 
231053Z AUTO 01007KT 6SM RA BR OVC004 01/01 A2940 RMK AO2 CIG 003V006 SLP965 P0010 T00110006
KOSC 
45nm SE 
231055Z AUTO 27003KT 10SM BKN006 OVC013 01/01 A2942 RMK AO2 T00120010
KACB 
46nm W 
231055Z AUTO 36005KT 2SM -SN OVC007 M01/M01 A2949 RMK AO2 T10081010
TAF
KAPN 
24nm E 
230816Z 2308/2406 04009KT 3SM -FZDZ BR OVC003 FM231100 03009KT 1SM -SN BR OVC008 FM231500 36012G21KT 3SM -SHSN OVC015 FM231800 34013G22KT P6SM VCSH OVC008 FM232100 33014G23KT P6SM OVC010 FM232300 33013G22KT P6SM BKN025
NOTAMs
Click for the latest NOTAMs
NOTAMs are issued by the DoD/FAA and will open in a separate window not controlled by AirNav.

 

 
 

Would you like to see your business listed on this page?

 If your business provides an interesting product or service to pilots, flight crews, aircraft, or users of the Atlanta Municipal Airport, you should consider listing it here.  To start the listing process, click on the button below
 
Add a business
 

Other Pages about Atlanta Municipal Airport

Page from the Michigan Airport Directory (PDF)
 
Update a link
 
Copyright © AirNav, LLC. All rights reserved. Privacy Policy  Contact